Latest Coastal Weather Observations for Northern Endeavour (near 10.5S 126E)

IDD60701

Issued at 3:31 am CST Thursday 30 June 2016 (issued every 10 minutes, with the page automatically refreshed every 10 minutes)

About coastal observations | Map of coastal stations | Coastal observations for NT | Marine services | Other Formats
Station Details ID: 200212 Name: NORTHERN ENDEAVOUR Lat: -10.61 Lon: 125.98 Height: 16.0 m
Data from the previous 72 hours. | See also: Recent months for locations in Northern Territory
Date/Time
CST
Temp
°C
Wind Pressure Rain since
9am
mm
Weather Cloud Vis
km
Sea
Height
m
Swell
Dir  Spd
kts
Gust
kts
hPa Trend Height
m
Period
s
Dir
30/03:30am 27.8 ESE 14 15 1014.1 - - - Partly cloudy 10 - - - -
30/03:20am 27.6 ESE 15 14 1014.2 - - - Partly cloudy 10 - - - -
30/03:10am 27.8 ESE 15 16 1014.3 - - - Partly cloudy 10 - - - -
30/03:00am 27.9 ESE 15 17 1014.5 - - - Partly cloudy 10 - - - -
30/02:50am 27.9 ESE 16 18 1014.5 - - - Partly cloudy 10 - - - -
30/02:40am 27.8 ESE 17 18 1014.6 - - - Partly cloudy 10 - - - -
30/02:30am 27.9 ESE 16 18 1014.6 - - - Partly cloudy 10 - - - -
30/02:20am 27.9 ESE 16 18 1014.7 - - - Partly cloudy 10 - - - -
30/02:10am 27.8 ESE 16 17 1014.8 - - - Partly cloudy 10 - - - -
30/02:00am 27.8 ESE 15 17 1014.8 - - - Partly cloudy 10 - - - -
30/01:50am 27.8 ESE 15 15 1014.9 - - - Partly cloudy 10 - - - -
30/01:40am 27.9 ESE 15 16 1015.0 - - - Partly cloudy 10 - - - -
30/01:30am 27.9 SE 15 16 1015.1 - - - Partly cloudy 10 - - - -
30/01:20am 27.8 ESE 13 16 1015.0 - - - Partly cloudy 10 - - - -
30/01:10am 27.8 ESE 15 15 1015.1 - - - Partly cloudy 10 - - - -
30/01:00am 27.8 ESE 15 15 1015.2 - - - Partly cloudy 10 - - - -
30/12:50am 27.8 ESE 15 16 1015.2 - - - Partly cloudy 10 - - - -
30/12:40am 27.8 ESE 14 15 1015.3 - - - Partly cloudy 10 - - - -
30/12:30am 27.8 ESE 14 15 1015.4 - - - Partly cloudy 10 - - - -
30/12:20am 27.8 ESE 14 17 1015.4 - - - Partly cloudy 10 - - - -
30/12:10am 27.8 ESE 15 15 1015.4 - - - - 10 - - - -
30/12:00am 27.8 ESE 15 16 1015.4 - - - - 10 - - - -
 
Date/Time
CST
Temp
°C
Wind Pressure Rain since
9am
mm
Weather Cloud Vis
km
Sea
Height
m
Swell
Dir  Spd
kts
Gust
kts
hPa Trend Height
m
Period
s
Dir
29/11:50pm 27.9 ESE 15 16 1015.4 - - - Partly cloudy 10 - - - -
29/11:40pm 27.9 ESE 15 17 1015.5 - - - Partly cloudy 10 - - - -
29/11:30pm 27.9 ESE 16 18 1015.4 - - - Partly cloudy 10 - - - -
29/11:20pm 27.9 ESE 15 18 1015.5 - - - Partly cloudy 10 - - - -
29/11:10pm 28.0 E 14 18 1015.6 - - - Partly cloudy 10 - - - -
29/11:00pm 28.1 E 15 19 1015.6 - - - Partly cloudy 10 - - - -
29/10:50pm 28.0 E 14 17 1015.7 - - - Partly cloudy 10 - - - -
29/10:40pm 27.9 ESE 14 17 1015.7 - - - Partly cloudy 10 - - - -
29/10:30pm 28.1 E 16 17 1015.7 - - - Partly cloudy 10 - - - -
29/10:20pm 28.0 ESE 15 16 1015.6 - - - Partly cloudy 10 - - - -
29/10:10pm 28.0 ESE 14 18 1015.5 - - - Partly cloudy 10 - - - -
29/10:00pm 28.0 ESE 16 18 1015.5 - - - Partly cloudy 10 - - - -
29/09:50pm 28.0 E 15 17 1015.4 - - - Partly cloudy 10 - - - -
29/09:40pm 28.0 E 12 17 1015.4 - - - Partly cloudy 10 - - - -
29/09:30pm 28.0 E 14 15 1015.3 - - - Partly cloudy 10 - - - -
29/09:20pm 27.9 E 13 17 1015.1 - - - Partly cloudy 10 - - - -
29/09:10pm 28.0 E 16 18 1015.0 - - - Partly cloudy 10 - - - -
29/09:00pm 28.0 E 13 19 1015.0 - - - - 10 - - - -
29/08:50pm 28.1 E 13 17 1014.9 - - - Partly cloudy 10 - - - -
29/08:40pm 28.2 E 13 16 1014.8 - - - Partly cloudy 10 - - - -
29/08:30pm 28.0 E 14 17 1014.8 - - - Partly cloudy 10 - - - -
29/08:20pm 28.0 E 13 17 1014.7 - - - Partly cloudy 10 - - - -
29/08:10pm 28.1 E 15 16 1014.6 - - - Partly cloudy 10 - - - -
29/08:00pm 28.0 E 13 14 1014.4 - - - Partly cloudy 10 - - - -
29/07:50pm 28.0 E 12 18 1014.3 - - - Partly cloudy 10 - - - -
29/07:40pm 28.0 E 12 15 1014.2 - - - Partly cloudy 10 - - - -
29/07:30pm 27.9 E 13 14 1014.1 - - - Partly cloudy 10 - - - -
29/07:20pm 28.0 E 12 19 1013.9 - - - Partly cloudy 10 - - - -
29/07:10pm 27.9 E 13 13 1013.8 - - - Partly cloudy 10 - - - -
29/07:00pm 27.9 E 12 17 1013.6 - - - Partly cloudy 10 - - - -
29/06:50pm 28.2 E 14 18 1013.5 - - - Partly cloudy 10 - - - -
29/06:40pm 28.0 E 15 17 1013.3 - - - Partly cloudy 10 - - - -
29/06:30pm 28.6 E 17 21 1013.1 - - - Partly cloudy 10 - - - -
29/06:20pm 28.3 E 14 17 1013.0 - - - Partly cloudy 10 - - - -
29/06:10pm 28.4 E 13 19 1013.0 - - - Partly cloudy 10 - - - -
29/06:00pm 28.4 E 14 16 1013.0 - - - Partly cloudy 10 - - - -
29/05:50pm 28.5 E 14 15 1012.9 - - - - 10 - - - -
29/05:40pm 28.6 E 12 16 1012.7 - - - Partly cloudy 10 - - - -
29/05:30pm 28.7 E 14 14 1012.5 - - - Partly cloudy 10 - - - -
29/05:20pm 28.9 E 16 17 1012.4 - - - Partly cloudy 10 - - - -
29/05:10pm 29.1 E 14 19 1012.4 - - - Partly cloudy 10 - - - -
29/05:00pm 28.7 E 14 16 1012.5 - - - Partly cloudy 10 - - - -
29/04:50pm 29.0 E 16 20 1012.3 - - - Partly cloudy 10 - - - -
29/04:40pm 29.2 E 18 18 1012.3 - - - Partly cloudy 10 - - - -
29/04:30pm 29.1 E 14 22 1012.2 - - - Partly cloudy 10 - - - -
29/04:20pm 29.0 E 15 18 1012.2 - - - Partly cloudy 10 - - - -
29/04:10pm 28.9 E 15 18 1012.2 - - - Partly cloudy 10 - - - -
29/04:00pm 29.0 E 15 17 1012.2 - - - Partly cloudy 10 - - - -
29/03:50pm 29.6 E 21 22 1012.0 - - - Partly cloudy 10 - - - -
29/03:40pm 29.5 E 20 22 1012.1 - - - - 10 - - - -
29/03:30pm 30.0 E 21 26 1012.0 - - - - 10 - - - -
29/03:20pm 29.5 E 22 24 1012.1 - - - - 10 - - - -
29/03:10pm 29.8 E 22 27 1012.1 - - - - 10 - - - -
29/03:00pm 29.6 E 19 23 1012.2 - - - Partly cloudy 10 - - - -
29/02:50pm 29.8 ESE 23 23 1012.3 - - - Partly cloudy 10 - - - -
29/02:40pm 29.9 E 21 25 1012.4 - - - Partly cloudy 10 - - - -
29/02:30pm 29.5 E 22 26 1012.5 - - - Partly cloudy 10 - - - -
29/02:20pm 29.6 E 20 27 1012.5 - - - Partly cloudy 10 - - - -
29/02:10pm 30.0 E 22 26 1012.6 - - - Partly cloudy 10 - - - -
29/02:00pm 30.4 E 22 24 1012.8 - - - Partly cloudy 10 - - - -
29/01:50pm 30.1 ESE 21 26 1012.9 - - - Partly cloudy 10 - - - -
29/01:40pm 30.5 ESE 18 21 1013.0 - - - Partly cloudy 10 - - - -
29/01:30pm 30.6 ESE 20 20 1013.1 - - - Partly cloudy 10 - - - -
29/01:20pm 30.8 ESE 20 20 1013.2 - - - Partly cloudy 10 - - - -
29/01:10pm 30.8 ESE 19 21 1013.4 - - - Partly cloudy 10 - - - -
29/01:00pm 30.5 ESE 19 19 1013.5 - - - - 10 - - - -
29/12:50pm 30.6 ESE 20 20 1013.7 - - - Partly cloudy 10 - - - -
29/12:40pm 30.5 ESE 20 21 1013.8 - - - Partly cloudy 10 - - - -
29/12:30pm 30.5 ESE 19 22 1013.9 - - - Partly cloudy 10 - - - -
29/12:20pm 30.4 ESE 20 20 1014.2 - - - - 10 - - - -
29/12:10pm 30.3 ESE 19 20 1014.3 - - - - 10 - - - -
29/12:00pm 30.8 ESE 18 20 1014.4 - - - Partly cloudy 10 - - - -
29/11:50am 30.4 ESE 19 19 1014.6 - - - Partly cloudy 10 - - - -
29/11:40am 30.4 ESE 20 21 1014.7 - - - Partly cloudy 10 - - - -
29/11:30am 30.4 ESE 19 20 1015.0 - - - Partly cloudy 10 - - - -
29/11:20am 30.4 ESE 20 22 1015.0 - - - Partly cloudy 10 - - - -
29/11:10am 30.1 SE 19 20 1015.2 - - - Partly cloudy 10 - - - -
29/11:00am 30.1 SE 20 20 1015.3 - - - Partly cloudy 10 - - - -
29/10:50am 29.5 SE 20 21 1015.3 - - - Partly cloudy 10 - - - -
29/10:40am 29.9 SE 20 21 1015.4 - - - Partly cloudy 10 - - - -
29/10:30am 29.5 SE 20 20 1015.5 - - - Partly cloudy 10 - - - -
29/10:20am 29.8 SE 20 21 1015.5 - - - Partly cloudy 10 - - - -
29/10:10am 29.9 SE 20 22 1015.4 - - - Partly cloudy 10 - - - -
29/10:00am 29.7 SE 20 21 1015.4 - - - Partly cloudy 10 - - - -
29/09:50am 30.2 SE 20 22 1015.3 - - - Partly cloudy 10 - - - -
29/09:40am 29.5 SE 19 22 1015.3 - - - Partly cloudy 10 - - - -
29/09:30am 29.0 SE 17 17 1015.3 - - - Partly cloudy 10 - - - -
29/09:20am 28.8 SE 18 19 1015.2 - - - Partly cloudy 10 - - - -
29/09:10am 29.2 ESE 16 19 1015.1 - - - Partly cloudy 10 - - - -
29/09:00am 29.2 ESE 17 17 1015.0 - - - Partly cloudy 10 - - - -
29/08:50am 28.9 ESE 17 18 1014.7 - - - Partly cloudy 10 - - - -
29/08:40am 28.6 ESE 17 18 1014.5 - - - Partly cloudy 10 - - - -
29/08:30am 28.7 ESE 18 19 1014.4 - - - Partly cloudy 10 - - - -
29/08:20am 28.3 ESE 18 18 1014.2 - - - Partly cloudy 10 - - - -
29/08:10am 27.9 ESE 19 21 1014.1 - - - Partly cloudy 10 - - - -
29/08:00am 28.6 ESE 17 20 1014.2 - - - Partly cloudy 10 - - - -
29/07:50am 28.4 ESE 15 17 1014.1 - - - Partly cloudy 10 - - - -
29/07:40am 28.2 ESE 15 15 1014.0 - - - Partly cloudy 10 - - - -
29/07:30am 28.1 ESE 16 19 1013.9 - - - Partly cloudy 10 - - - -
29/07:20am 28.2 ESE 16 18 1013.9 - - - Partly cloudy 10 - - - -
29/07:10am 28.2 ESE 15 17 1013.7 - - - Partly cloudy 10 - - - -
29/07:00am 28.1 ESE 15 16 1013.6 - - - Partly cloudy 10 - - - -
29/06:50am 28.3 ESE 16 17 1013.5 - - - Partly cloudy 10 - - - -
29/06:40am 28.7 ESE 16 18 1013.3 - - - Partly cloudy 10 - - - -
29/06:30am 28.2 ESE 15 17 1013.3 - - - Partly cloudy 10 - - - -
29/06:20am 28.1 ESE 16 18 1013.2 - - - Partly cloudy 10 - - - -
29/06:10am 28.3 ESE 15 17 1013.0 - - - Partly cloudy 10 - - - -
29/06:00am 28.1 ESE 14 16 1012.9 - - - Partly cloudy 10 - - - -
29/05:50am 28.3 ESE 16 17 1012.9 - - - Partly cloudy 10 - - - -
29/05:40am 28.1 ESE 15 17 1012.8 - - - - 10 - - - -
29/05:30am 28.2 ESE 16 19 1012.7 - - - - 10 - - - -
29/05:20am 28.1 ESE 15 16 1012.8 - - - - 10 - - - -
29/05:10am 28.4 ESE 16 17 1012.8 - - - - 10 - - - -
29/05:00am 28.2 ESE 16 16 1012.8 - - - - 10 - - - -
29/04:50am 28.2 E 16 15 1012.9 - - - Partly cloudy 10 - - - -
29/04:40am 28.2 E 16 18 1013.0 - - - Partly cloudy 10 - - - -
29/04:30am 28.2 ESE 17 18 1013.0 - - - Partly cloudy 10 - - - -
29/04:20am 28.3 ESE 16 18 1013.0 - - - Partly cloudy 10 - - - -
29/04:10am 28.2 ESE 16 18 1013.1 - - - Partly cloudy 10 - - - -
29/04:00am 28.3 ESE 15 16 1013.3 - - - Partly cloudy 10 - - - -
29/03:50am 28.4 ESE 15 16 1013.3 - - - - 10 - - - -
29/03:40am 28.2 E 16 17 1013.4 - - - Partly cloudy 10 - - - -
29/03:30am 28.3 E 16 18 1013.3 - - - Partly cloudy 10 - - - -
29/03:20am 28.3 E 16 19 1013.3 - - - Partly cloudy 10 - - - -
29/03:10am 28.3 E 17 18 1013.4 - - - - 10 - - - -
29/03:00am 28.3 E 18 18 1013.5 - - - Partly cloudy 10 - - - -
29/02:50am 28.3 E 18 19 1013.6 - - - Partly cloudy 10 - - - -
29/02:40am 28.3 E 19 21 1013.7 - - - Partly cloudy 10 - - - -
29/02:30am 28.4 E 19 20 1013.8 - - - Partly cloudy 10 - - - -
29/02:20am 28.3 E 20 21 1013.8 - - - - 10 - - - -
29/02:10am 28.5 E 21 22 1013.8 - - - - 10 - - - -
29/02:00am 28.4 E 20 22 1014.0 - - - - 10 - - - -
29/01:50am 28.4 E 19 24 1014.0 - - - - 10 - - - -
29/01:40am 28.3 E 20 21 1014.0 - - - - 10 - - - -
29/01:30am 28.5 E 21 22 1014.0 - - - - 10 - - - -
29/01:20am 28.6 E 23 24 1014.1 - - - - 10 - - - -
29/01:10am 28.5 E 20 25 1014.1 - - - - 10 - - - -
29/01:00am 28.5 E 20 20 1014.1 - - - - 10 - - - -
29/12:50am 28.5 E 20 23 1014.2 - - - - 10 - - - -
29/12:40am 28.5 E 21 23 1014.2 - - - - 10 - - - -
29/12:30am 28.5 E 20 23 1014.2 - - - - 10 - - - -
29/12:20am 28.4 E 21 20 1014.3 - - - - 10 - - - -
29/12:10am 28.6 E 22 25 1014.3 - - - - 10 - - - -
29/12:00am 28.7 E 22 24 1014.4 - - - - 10 - - - -
 
Date/Time
CST
Temp
°C
Wind Pressure Rain since
9am
mm
Weather Cloud Vis
km
Sea
Height
m
Swell
Dir  Spd
kts
Gust
kts
hPa Trend Height
m
Period
s
Dir
28/11:50pm 28.6 E 23 23 1014.4 - - - - 10 - - - -
28/11:40pm 28.6 E 23 26 1014.4 - - - Partly cloudy 10 - - - -
28/11:30pm 28.5 E 24 25 1014.5 - - - - 10 - - - -
28/11:20pm 28.5 E 23 25 1014.5 - - - Partly cloudy 10 - - - -
28/11:10pm 28.8 E 23 25 1014.7 - - - Partly cloudy 10 - - - -
28/11:00pm 28.7 E 24 27 1014.6 - - - Partly cloudy 10 - - - -
28/10:50pm 28.6 E 22 25 1014.7 - - - Partly cloudy 10 - - - -
28/10:40pm 28.6 ESE 23 27 1014.8 - - - Partly cloudy 10 - - - -
28/10:30pm 28.6 E 24 24 1014.8 - - - Partly cloudy 10 - - - -
28/10:20pm 28.8 ESE 23 26 1014.9 - - - Partly cloudy 10 - - - -
28/10:10pm 28.6 ESE 23 24 1014.8 - - - Partly cloudy 10 - - - -
28/10:00pm 28.5 ESE 23 22 1014.8 - - - Partly cloudy 10 - - - -
28/09:50pm 28.5 ESE 22 25 1014.8 - - - Partly cloudy 10 - - - -
28/09:40pm 28.6 ESE 22 22 1014.7 - - - - 10 - - - -
28/09:30pm 28.5 ESE 22 24 1014.6 - - - Partly cloudy 10 - - - -
28/09:20pm 28.4 ESE 21 23 1014.5 - - - Partly cloudy 10 - - - -
28/09:10pm 28.5 ESE 21 23 1014.5 - - - Partly cloudy 10 - - - -
28/09:00pm 28.7 ESE 22 22 1014.4 - - - - 10 - - - -
28/08:50pm 28.6 ESE 23 24 1014.3 - - - Partly cloudy 10 - - - -
28/08:40pm 28.7 ESE 23 25 1014.2 - - - Partly cloudy 10 - - - -
28/08:30pm 28.6 ESE 22 25 1014.1 - - - Partly cloudy 10 - - - -
28/08:20pm 28.6 ESE 21 23 1014.0 - - - Partly cloudy 10 - - - -
28/08:10pm 28.7 ESE 22 22 1013.8 - - - - 10 - - - -
28/08:00pm 28.7 ESE 23 25 1013.6 - - - - 10 - - - -
28/07:50pm 28.9 E 24 24 1013.5 - - - Partly cloudy 10 - - - -
28/07:40pm 28.7 ESE 22 23 1013.4 - - - Partly cloudy 10 - - - -
28/07:30pm 28.7 ESE 23 26 1013.1 - - - Partly cloudy 10 - - - -
28/07:20pm 28.7 ESE 19 22 1013.0 - - - Partly cloudy 10 - - - -
28/07:10pm 28.6 ESE 19 21 1012.9 - - - Partly cloudy 10 - - - -
28/07:00pm 28.6 ESE 21 23 1012.8 - - - - 10 - - - -
28/06:50pm 28.7 ESE 21 22 1012.7 - - - - 10 - - - -
28/06:40pm 28.7 E 22 22 1012.6 - - - - 10 - - - -
28/06:30pm 28.9 E 21 25 1012.5 - - - - 10 - - - -
28/06:20pm 29.1 ESE 24 25 1012.4 - - - - 10 - - - -
28/06:10pm 29.2 ESE 20 27 1012.2 - - - - 10 - - - -
28/06:00pm 29.1 ESE 21 22 1012.1 - - - - 10 - - - -
28/05:50pm 28.8 ESE 23 24 1012.1 - - - Partly cloudy 10 - - - -
28/05:40pm 28.7 ESE 22 25 1012.1 - - - Partly cloudy 10 - - - -
28/05:30pm 28.7 ESE 24 26 1011.9 - - - Partly cloudy 10 - - - -
28/05:20pm 29.1 ESE 22 26 1011.9 - - - Partly cloudy 10 - - - -
28/05:10pm 30.1 E 18 21 1011.8 - - - Partly cloudy 10 - - - -
28/05:00pm 29.5 E 18 20 1011.7 - - - Partly cloudy 10 - - - -
28/04:50pm 29.6 E 18 22 1011.7 - - - Partly cloudy 10 - - - -
28/04:40pm 29.3 E 13 13 1011.6 - - - Partly cloudy 10 - - - -
28/04:30pm 28.8 ESE 16 15 1011.6 - - - Partly cloudy 10 - - - -
28/04:20pm 29.1 ESE 21 26 1011.4 - - - Partly cloudy 4 - - - -
28/04:10pm 29.9 E 13 16 1011.5 - - - Partly cloudy 10 - - - -
28/04:00pm 29.8 E 14 17 1011.5 - - - - 10 - - - -
28/03:50pm 30.1 E 16 17 1011.5 - - - - 10 - - - -
28/03:40pm 30.5 E 18 22 1011.5 - - - Partly cloudy 10 - - - -
28/03:30pm 30.7 E 19 21 1011.6 - - - - 10 - - - -
28/03:20pm 30.3 E 17 21 1011.6 - - - Partly cloudy 10 - - - -
28/03:10pm 30.6 E 17 20 1011.5 - - - Partly cloudy 10 - - - -
28/03:00pm 30.9 E 18 20 1011.5 - - - Partly cloudy 10 - - - -
28/02:50pm 31.1 E 18 21 1011.7 - - - Partly cloudy 10 - - - -
28/02:40pm 30.8 E 18 20 1011.8 - - - Partly cloudy 10 - - - -
28/02:30pm 30.9 E 18 19 1011.9 - - - Partly cloudy 10 - - - -
28/02:20pm 30.7 E 19 21 1012.0 - - - Partly cloudy 10 - - - -
28/02:10pm 30.8 E 19 21 1012.1 - - - Partly cloudy 10 - - - -
28/02:00pm 30.6 E 19 20 1012.2 - - - Partly cloudy 10 - - - -
28/01:50pm 31.0 E 20 21 1012.2 - - - Partly cloudy 10 - - - -
28/01:40pm 31.0 E 21 21 1012.3 - - - - 10 - - - -
28/01:30pm 31.2 E 21 22 1012.3 - - - Partly cloudy 10 - - - -
28/01:20pm 31.0 E 22 23 1012.4 - - - Partly cloudy 10 - - - -
28/01:10pm 30.9 E 21 22 1012.6 - - - Partly cloudy 10 - - - -
28/01:00pm 31.1 E 21 24 1012.7 - - - Partly cloudy 10 - - - -
28/12:50pm 30.8 E 21 23 1012.7 - - - Partly cloudy 10 - - - -
28/12:40pm 30.6 E 22 23 1012.9 - - - Partly cloudy 10 - - - -
28/12:30pm 31.0 E 21 22 1013.0 - - - Partly cloudy 10 - - - -
28/12:20pm 30.6 E 19 20 1013.0 - - - Partly cloudy 10 - - - -
28/12:10pm 30.9 E 20 21 1013.1 - - - Partly cloudy 10 - - - -
28/12:00pm 30.8 E 20 23 1013.2 - - - Partly cloudy 10 - - - -
28/11:50am 30.8 E 19 22 1013.3 - - - Partly cloudy 10 - - - -
28/11:40am 30.7 E 20 22 1013.3 - - - Partly cloudy 10 - - - -
28/11:30am 30.6 E 21 21 1013.5 - - - Partly cloudy 10 - - - -
28/11:20am 30.5 E 21 23 1013.5 - - - Partly cloudy 10 - - - -
28/11:10am 30.3 E 21 24 1013.4 - - - Partly cloudy 10 - - - -
28/11:00am 30.4 E 21 22 1013.4 - - - Partly cloudy 10 - - - -
28/10:50am 30.2 E 21 23 1013.3 - - - Partly cloudy 10 - - - -
28/10:40am 30.2 E 21 23 1013.4 - - - Partly cloudy 10 - - - -
28/10:30am 30.2 E 22 21 1013.3 - - - - 10 - - - -
28/10:20am 30.1 E 23 22 1013.2 - - - - 10 - - - -
28/10:10am 30.2 E 23 25 1013.2 - - - - 10 - - - -
28/10:00am 30.1 E 23 24 1013.1 - - - Partly cloudy 10 - - - -
28/09:50am 29.9 E 23 25 1013.1 - - - Partly cloudy 10 - - - -
28/09:40am 30.0 E 22 25 1013.1 - - - Partly cloudy 10 - - - -
28/09:30am 29.8 E 22 24 1012.9 - - - Partly cloudy 10 - - - -
28/09:20am 29.6 E 23 22 1012.8 - - - Partly cloudy 10 - - - -
28/09:10am 29.8 E 22 26 1012.7 - - - Partly cloudy 10 - - - -
28/09:00am 29.5 E 21 24 1012.6 - - - Partly cloudy 10 - - - -
28/08:50am 29.4 E 21 23 1012.4 - - - Partly cloudy 10 - - - -
28/08:40am 29.2 E 21 23 1012.3 - - - - 10 - - - -
28/08:30am 28.7 E 20 24 1012.2 - - - - 10 - - - -
28/08:20am 28.8 E 21 23 1012.1 - - - Partly cloudy 10 - - - -
28/08:10am 28.8 E 22 23 1012.0 - - - Partly cloudy 10 - - - -
28/08:00am 28.6 ESE 22 24 1011.8 - - - Partly cloudy 10 - - - -
28/07:50am 28.6 E 22 23 1011.6 - - - Partly cloudy 10 - - - -
28/07:40am 28.5 ESE 22 23 1011.5 - - - Partly cloudy 10 - - - -
28/07:30am 28.5 E 21 22 1011.5 - - - Partly cloudy 10 - - - -
28/07:20am 28.5 E 20 23 1011.3 - - - Partly cloudy 10 - - - -
28/07:10am 28.3 E 19 21 1011.2 - - - - 10 - - - -
28/07:00am 28.4 E 19 22 1011.1 - - - - 10 - - - -
28/06:50am 28.4 E 18 20 1011.2 - - - - 10 - - - -
28/06:40am 28.5 E 19 20 1011.1 - - - - 10 - - - -
28/06:30am 28.5 E 20 21 1011.0 - - - Partly cloudy 10 - - - -
28/06:20am 28.4 ESE 20 22 1011.0 - - - Partly cloudy 10 - - - -
28/06:10am 28.5 E 20 21 1010.9 - - - Partly cloudy 10 - - - -
28/06:00am 28.6 E 19 20 1011.0 - - - Partly cloudy 10 - - - -
28/05:50am 28.7 E 21 22 1010.9 - - - Partly cloudy 10 - - - -
28/05:40am 28.5 E 20 23 1010.8 - - - Partly cloudy 10 - - - -
28/05:30am 28.6 E 20 22 1010.8 - - - Partly cloudy 10 - - - -
28/05:20am 28.7 E 21 23 1010.8 - - - Partly cloudy 10 - - - -
28/05:10am 28.6 E 21 23 1010.7 - - - Partly cloudy 10 - - - -
28/05:00am 28.6 E 22 23 1010.6 - - - Partly cloudy 10 - - - -
28/04:50am 28.5 E 22 22 1010.5 - - - Partly cloudy 10 - - - -
28/04:40am 28.5 E 24 25 1010.4 - - - Partly cloudy 10 - - - -
28/04:30am 28.5 E 23 25 1010.4 - - - Partly cloudy 10 - - - -
28/04:20am 28.5 E 22 22 1010.4 - - - Partly cloudy 10 - - - -
28/04:10am 28.5 E 23 26 1010.5 - - - Partly cloudy 10 - - - -
28/04:00am 28.6 E 23 25 1010.5 - - - Partly cloudy 10 - - - -
28/03:50am 28.7 E 22 23 1010.6 - - - Partly cloudy 10 - - - -
28/03:40am 28.6 E 22 24 1010.7 - - - Partly cloudy 10 - - - -
28/03:30am 28.6 E 22 24 1010.8 - - - Partly cloudy 10 - - - -
28/03:20am 28.7 E 22 23 1010.8 - - - Partly cloudy 10 - - - -
28/03:10am 28.7 E 23 25 1010.9 - - - Partly cloudy 10 - - - -
28/03:00am 28.8 E 23 25 1010.9 - - - Partly cloudy 10 - - - -
28/02:50am 28.8 E 23 24 1011.1 - - - Partly cloudy 10 - - - -
28/02:40am 28.7 E 22 22 1011.2 - - - Partly cloudy 10 - - - -
28/02:30am 28.7 E 23 23 1011.2 - - - Partly cloudy 10 - - - -
28/02:20am 28.5 E 22 25 1011.3 - - - Partly cloudy 10 - - - -
28/02:10am 28.5 ESE 21 23 1011.5 - - - Partly cloudy 10 - - - -
28/02:00am 28.4 ESE 21 22 1011.7 - - - Partly cloudy 10 - - - -
28/01:50am 28.4 ESE 22 24 1011.6 - - - Partly cloudy 10 - - - -
28/01:40am 28.4 ESE 21 20 1011.8 - - - Partly cloudy 10 - - - -
28/01:30am 28.4 ESE 22 24 1011.9 - - - Partly cloudy 10 - - - -
28/01:20am 28.3 ESE 21 23 1011.9 - - - Partly cloudy 10 - - - -
28/01:10am 28.4 ESE 18 22 1011.9 - - - Partly cloudy 10 - - - -
28/01:00am 28.0 ESE 16 19 1012.0 - - - Cloudy 10 - - - -
28/12:50am 27.5 ESE 15 17 1012.1 - - - Partly cloudy 10 - - - -
28/12:40am 27.4 ESE 17 16 1012.2 - - - Partly cloudy 10 - - - -
28/12:30am 27.3 ESE 16 16 1012.3 - - - Partly cloudy 10 - - - -
28/12:20am 27.2 ESE 16 17 1012.5 - - - Partly cloudy 10 - - - -
28/12:10am 27.2 E 17 18 1012.6 - - - Cloudy 10 - - - -
28/12:00am 27.0 E 18 19 1012.7 - - - Partly cloudy 10 - - - -
 
Date/Time
CST
Temp
°C
Wind Pressure Rain since
9am
mm
Weather Cloud Vis
km
Sea
Height
m
Swell
Dir  Spd
kts
Gust
kts
hPa Trend Height
m
Period
s
Dir
27/11:50pm 27.0 E 17 20 1012.8 - - - Partly cloudy 10 - - - -
27/11:40pm 27.0 E 16 20 1012.9 - - - Partly cloudy 10 - - - -
27/11:30pm 26.5 E 13 18 1013.1 - - - Partly cloudy 10 - - - -
27/11:20pm 25.7 E 17 18 1013.3 - - - Partly cloudy 10 - - - -
27/11:10pm 25.2 E 24 31 1013.5 - - - Partly cloudy 10 - - - -
27/11:00pm 25.4 ESE 18 33 1013.6 - - - Partly cloudy 4 - - - -
27/10:59pm 25.8 ESE 17 36 1013.6 - - - Partly cloudy 0.8 - - - -
27/10:50pm 26.2 ESE 15 15 1013.3 - - - Partly cloudy 10 - - - -
27/10:40pm 26.0 ESE 17 17 1013.2 - - - Partly cloudy 10 - - - -
27/10:30pm 26.2 ESE 19 20 1013.2 - - - Partly cloudy 10 - - - -
27/10:20pm 26.2 E 19 19 1013.0 - - - Partly cloudy 10 - - - -
27/10:10pm 26.0 E 18 21 1013.2 - - - Partly cloudy 10 - - - -
27/10:00pm 25.6 E 17 19 1013.2 - - - Partly cloudy 10 - - - -
27/09:50pm 25.1 E 18 20 1013.1 - - - Partly cloudy 10 - - - -
27/09:40pm 24.6 E 20 21 1013.1 - - - Partly cloudy 10 - - - -
27/09:30pm 24.8 E 21 25 1013.1 - - - Partly cloudy 2 - - - -
27/09:20pm 24.2 E 27 32 1012.9 - - - Partly cloudy 0.9 - - - -
27/09:16pm 24.7 E 24 35 1012.5 - - - Partly cloudy 3 - - - -
27/09:11pm 28.5 ESE 17 29 1012.4 - - - Partly cloudy 7 - - - -
27/09:10pm 28.7 ESE 15 22 1012.5 - - - Partly cloudy 8 - - - -
27/09:00pm 27.5 E 9 12 1012.4 - - - Partly cloudy 10 - - - -
27/08:50pm 27.4 E 10 10 1012.2 - - - Partly cloudy 10 - - - -
27/08:40pm 28.2 ESE 15 14 1012.0 - - - Partly cloudy 10 - - - -
27/08:30pm 28.8 ESE 15 17 1011.9 - - - Partly cloudy 10 - - - -
27/08:20pm 28.8 ESE 16 16 1011.8 - - - Partly cloudy 10 - - - -
27/08:10pm 28.8 ESE 16 17 1011.6 - - - Partly cloudy 10 - - - -
27/08:00pm 28.9 ESE 15 16 1011.5 - - - Partly cloudy 10 - - - -
27/07:50pm 28.8 ESE 15 17 1011.5 - - - Partly cloudy 10 - - - -
27/07:40pm 28.9 ESE 16 15 1011.5 - - - Partly cloudy 10 - - - -
27/07:30pm 28.8 ESE 14 15 1011.4 - - - Partly cloudy 10 - - - -
27/07:20pm 29.0 ESE 14 15 1011.3 - - - Partly cloudy 10 - - - -
27/07:10pm 28.9 ESE 14 15 1011.2 - - - Partly cloudy 10 - - - -
27/07:00pm 28.9 ESE 15 17 1011.1 - - - Partly cloudy 10 - - - -
27/06:50pm 29.1 ESE 15 16 1011.1 - - - Partly cloudy 10 - - - -
27/06:40pm 29.4 ESE 15 16 1011.0 - - - Partly cloudy 10 - - - -
27/06:30pm 29.4 ESE 14 14 1010.9 - - - Partly cloudy 10 - - - -
27/06:20pm 29.5 ESE 15 16 1010.7 - - - Partly cloudy 10 - - - -
27/06:10pm 29.6 ESE 15 16 1010.7 - - - Partly cloudy 10 - - - -
27/06:00pm 30.4 ESE 14 15 1010.4 - - - Partly cloudy 10 - - - -
27/05:50pm 30.7 ESE 15 15 1010.4 - - - Partly cloudy 10 - - - -
27/05:40pm 30.8 ESE 14 15 1010.2 - - - Partly cloudy 10 - - - -
27/05:30pm 31.2 ESE 13 15 1010.1 - - - Partly cloudy 10 - - - -
27/05:20pm 31.0 ESE 12 13 1010.2 - - - Partly cloudy 10 - - - -
27/05:10pm 31.6 ESE 13 13 1010.1 - - - Partly cloudy 10 - - - -
27/05:00pm 31.0 ESE 13 15 1010.0 - - - Partly cloudy 10 - - - -
27/04:50pm 30.7 ESE 13 15 1009.8 - - - - 10 - - - -
27/04:40pm 30.3 ESE 13 15 1009.8 - - - - 10 - - - -
27/04:30pm 30.2 ESE 14 15 1009.8 - - - - 10 - - - -
27/04:20pm 30.8 ESE 14 15 1009.8 - - - - 10 - - - -
27/04:10pm 30.1 ESE 14 15 1009.8 - - - - 10 - - - -
27/04:00pm 31.5 ESE 13 15 1009.7 - - - Partly cloudy 10 - - - -
27/03:50pm 31.8 ESE 12 14 1009.6 - - - Partly cloudy 10 - - - -
27/03:40pm 31.9 ESE 13 14 1009.6 - - - Partly cloudy 10 - - - -
27/03:30pm 31.4 ESE 12 12 1009.8 - - - Partly cloudy 10 - - - -
27/03:20pm 31.3 ESE 11 14 1009.8 - - - Partly cloudy 10 - - - -
27/03:10pm 31.3 ESE 9 12 1009.9 - - - Partly cloudy 10 - - - -
27/03:00pm 31.1 ESE 9 12 1010.1 - - - Partly cloudy 10 - - - -
27/02:50pm 31.5 ESE 9 10 1010.3 - - - Partly cloudy 10 - - - -
27/02:40pm 31.3 ESE 8 9 1010.4 - - - Partly cloudy 10 - - - -
27/02:30pm 31.4 E 9 11 1010.5 - - - Partly cloudy 10 - - - -
27/02:20pm 31.3 E 10 13 1010.6 - - - Partly cloudy 10 - - - -
27/02:10pm 31.2 E 10 12 1010.6 - - - Partly cloudy 10 - - - -
27/02:00pm 31.2 E 9 13 1010.7 - - - Partly cloudy 10 - - - -
27/01:50pm 30.9 E 9 12 1010.9 - - - - 10 - - - -
27/01:40pm 30.9 E 11 12 1011.1 - - - Partly cloudy 10 - - - -
27/01:30pm 30.8 E 10 13 1011.3 - - - Partly cloudy 10 - - - -
27/01:20pm 30.9 E 10 15 1011.5 - - - Partly cloudy 10 - - - -
27/01:10pm 30.8 E 12 15 1011.7 - - - Partly cloudy 10 - - - -
27/01:00pm 30.4 E 10 15 1011.9 - - - - 10 - - - -
27/12:50pm 30.8 E 12 15 1012.0 - - - - 10 - - - -
27/12:40pm 30.9 E 11 15 1012.1 - - - Partly cloudy 10 - - - -
27/12:30pm 30.6 E 12 14 1012.2 - - - Partly cloudy 10 - - - -
27/12:20pm 30.3 E 11 14 1012.2 - - - Partly cloudy 10 - - - -
27/12:10pm 30.4 E 12 15 1012.4 - - - Partly cloudy 10 - - - -
27/12:00pm 29.9 ESE 12 14 1012.4 - - - Partly cloudy 10 - - - -
27/11:50am 29.6 ESE 11 14 1012.5 - - - Partly cloudy 10 - - - -
27/11:40am 29.6 ESE 11 11 1012.5 - - - Partly cloudy 10 - - - -
27/11:30am 29.5 ESE 10 11 1012.5 - - - Partly cloudy 10 - - - -
27/11:20am 29.6 E 9 10 1012.6 - - - Partly cloudy 10 - - - -
27/11:10am 30.0 ESE 8 10 1012.6 - - - Partly cloudy 10 - - - -
27/11:00am 30.0 E 7 11 1012.6 - - - Partly cloudy 10 - - - -
27/10:50am 30.1 E 6 11 1012.6 - - - Partly cloudy 10 - - - -
27/10:40am 30.1 E 6 9 1012.6 - - - Partly cloudy 10 - - - -
27/10:30am 29.8 E 6 10 1012.6 - - - Partly cloudy 10 - - - -
27/10:20am 29.5 E 5 10 1012.5 - - - Partly cloudy 10 - - - -
27/10:10am 29.5 E 7 11 1012.5 - - - Partly cloudy 10 - - - -
27/10:00am 29.4 E 5 9 1012.5 - - - Partly cloudy 10 - - - -
27/09:50am 29.3 E 5 5 1012.4 - - - - 10 - - - -
27/09:40am 28.9 ESE 4 6 1012.4 - - - - 10 - - - -
27/09:30am 28.6 ESE 4 4 1012.3 - - - - 10 - - - -
27/09:20am 28.6 E 5 6 1012.3 - - - - 10 - - - -
27/09:10am 28.5 E 4 7 1012.2 - - - - 10 - - - -
27/09:00am 28.2 E 3 5 1012.1 - - - Partly cloudy 10 - - - -
27/08:50am 28.3 E 3 4 1012.0 - - - - 10 - - - -
27/08:40am 27.7 ENE 3 4 1011.9 - - - - 10 - - - -
27/08:30am 27.6 E 2 3 1011.9 - - - Partly cloudy 10 - - - -
27/08:20am 27.5 E 3 4 1011.8 - - - Partly cloudy 10 - - - -
27/08:10am 27.3 ESE 3 3 1011.8 - - - Partly cloudy 9 - - - -
27/08:00am 27.2 ENE 4 4 1011.8 - - - Partly cloudy 10 - - - -
27/07:50am 27.1 ESE 2 4 1011.7 - - - Partly cloudy 9 - - - -
27/07:40am 27.1 SE 3 3 1011.5 - - - Partly cloudy 10 - - - -
27/07:30am 27.0 SE 2 4 1011.4 - - - Partly cloudy 10 - - - -
27/07:20am 27.0 SSE 2 3 1011.3 - - - Cloudy 10 - - - -
27/07:10am 27.0 SE 3 3 1011.2 - - - Cloudy 9 - - - -
27/07:00am 27.0 SE 3 4 1011.1 - - - Cloudy 8 - - - -
27/06:50am 26.9 SSE 2 4 1011.1 - - - Partly cloudy 9 - - - -
27/06:40am 26.9 SSE 1 2 1011.1 - - - Partly cloudy 10 - - - -
27/06:30am 26.9 SE 2 2 1011.0 - - - Partly cloudy 10 - - - -
27/06:20am 26.9 WNW 1 3 1010.9 - - - Partly cloudy 10 - - - -
27/06:10am 26.9 N 2 2 1010.9 - - - Partly cloudy 10 - - - -
27/06:00am 26.9 N 3 3 1010.9 - - - Partly cloudy 10 - - - -
27/05:50am 26.8 N 4 4 1010.9 - - - Partly cloudy 10 - - - -
27/05:40am 26.8 - 4 5 1010.9 - - - Partly cloudy 10 - - - -
27/05:30am 26.8 - 6 6 1010.9 - - - Partly cloudy 10 - - - -
27/05:20am 26.8 N 6 7 1010.8 - - - Partly cloudy 10 - - - -
27/05:10am 26.8 - 6 7 1010.9 - - - Partly cloudy 10 - - - -
27/05:00am 26.9 - 6 7 1010.9 - - - Partly cloudy 10 - - - -
27/04:50am 26.8 N 6 6 1010.9 - - - Partly cloudy 10 - - - -
27/04:40am 26.8 - 5 7 1011.0 - - - Partly cloudy 10 - - - -
27/04:30am 26.9 - 6 6 1011.0 - - - Partly cloudy 10 - - - -
27/04:20am 26.8 N 6 8 1011.1 - - - Partly cloudy 9 - - - -
27/04:10am 26.8 N 6 8 1011.2 - - - Partly cloudy 10 - - - -
27/04:00am 26.9 NNE 7 9 1011.3 - - - Partly cloudy 10 - - - -
27/03:50am 26.9 NNE 7 8 1011.4 - - - Cloudy 10 - - - -
27/03:40am 27.0 NNE 8 9 1011.4 - - - Cloudy 10 - - - -

Other Formats:

Comma delimited format used in spreadsheet applications
http://www.bom.gov.au/fwo/IDD60701/IDD60701.95100.axf

JavaScript Object Notation format (JSON) in row-major order
http://www.bom.gov.au/fwo/IDD60701/IDD60701.95100.json